Time;durP1;ratioP1;P1;durP2;ratioP2;P2;SDS_P1;SDS_P2;PMS_P1;PMS_P2;Temp;Humidity;BMP_temperature;BMP_pressure;BME280_temperature;BME280_humidity;BME280_pressure;Samples;Min_cycle;Max_cycle;Signal;HPM_P1;HPM_P2
2022/09/03 00:01:17;;;;;;;4.47;1.42;;;;;;;;;;4942145;28;20054;-87
2022/09/03 00:03:45;;;;;;;2.15;1.20;;;;;;;;;;4944373;28;20101;-86
2022/09/03 00:06:11;;;;;;;5.60;1.55;;;;;;;;;;4965922;28;20023;-86
2022/09/03 00:08:40;;;;;;;4.60;1.58;;;;;;;;;;4957925;28;20487;-87
2022/09/03 00:11:19;;;;;;;3.03;1.10;;;;;;;;;;4959986;28;20479;-86
2022/09/03 00:13:51;;;;;;;2.00;1.40;;;;;;;;;;4946501;28;20515;-86
2022/09/03 00:16:20;;;;;;;4.95;1.50;;;;;;;;;;4959955;28;20482;-86
2022/09/03 00:18:49;;;;;;;1.50;1.10;;;;;;;;;;4931381;28;20056;-87
2022/09/03 00:21:17;;;;;;;2.97;1.35;;;;;;;;;;4960325;28;20792;-87
2022/09/03 00:23:44;;;;;;;4.65;1.25;;;;;;;;;;4963919;28;20042;-87
2022/09/03 00:26:13;;;;;;;4.05;1.25;;;;;;;;;;4960430;28;20124;-86
2022/09/03 00:28:42;;;;;;;3.05;1.27;;;;;;;;;;4962294;28;20123;-86
2022/09/03 00:31:12;;;;;;;5.20;1.30;;;;;;;;;;4974958;28;20042;-87
2022/09/03 00:33:41;;;;;;;1.13;1.00;;;;;;;;;;4981089;28;20018;-86
2022/09/03 00:36:14;;;;;;;3.72;1.48;;;;;;;;;;4965684;28;20027;-87
2022/09/03 00:38:40;;;;;;;2.83;1.00;;;;;;;;;;4978716;28;20089;-87
2022/09/03 00:41:06;;;;;;;2.45;1.30;;;;;;;;;;4949593;28;20030;-87
2022/09/03 00:43:33;;;;;;;5.60;1.17;;;;;;;;;;4974900;28;20031;-87
2022/09/03 00:46:18;;;;;;;5.57;1.33;;;;;;;;;;4957113;28;20023;-87
2022/09/03 00:49:03;;;;;;;3.58;1.45;;;;;;;;;;4981679;28;20034;-86
2022/09/03 00:51:41;;;;;;;4.32;1.55;;;;;;;;;;4958551;28;20093;-87
2022/09/03 00:54:25;;;;;;;1.95;1.05;;;;;;;;;;4962786;28;20038;-87
2022/09/03 00:57:01;;;;;;;1.92;1.27;;;;;;;;;;4967734;28;20018;-87
2022/09/03 00:59:56;;;;;;;1.50;1.13;;;;;;;;;;4967188;28;20026;-87
2022/09/03 01:02:32;;;;;;;6.63;1.42;;;;;;;;;;4965619;28;20466;-86
2022/09/03 01:04:58;;;;;;;;;;;;;;;;;;4967955;28;20026;-86
2022/09/03 01:07:40;;;;;;;5.15;1.20;;;;;;;;;;4984180;28;19913;-86
2022/09/03 01:10:06;;;;;;;3.95;0.93;;;;;;;;;;4969700;28;20726;-87
2022/09/03 01:12:46;;;;;;;1.33;0.90;;;;;;;;;;4983018;28;20069;-86
2022/09/03 01:15:31;;;;;;;4.57;1.10;;;;;;;;;;4979646;28;20023;-86
2022/09/03 01:17:58;;;;;;;3.47;1.30;;;;;;;;;;4969057;28;20471;-87
2022/09/03 01:20:24;;;;;;;4.13;1.30;;;;;;;;;;4968304;28;20031;-86
2022/09/03 01:23:08;;;;;;;3.70;1.30;;;;;;;;;;4979178;28;20113;-87
2022/09/03 01:25:50;;;;;;;2.53;1.30;;;;;;;;;;4969622;28;20055;-86
2022/09/03 01:28:19;;;;;;;7.13;1.40;;;;;;;;;;4967617;28;20065;-86
2022/09/03 01:30:49;;;;;;;5.85;1.20;;;;;;;;;;4964955;28;20039;-86
2022/09/03 01:33:45;;;;;;;1.90;1.40;;;;;;;;;;4978748;28;20104;-86
2022/09/03 01:36:10;;;;;;;2.83;1.25;;;;;;;;;;4956739;28;20034;-86
2022/09/03 01:38:46;;;;;;;4.57;1.45;;;;;;;;;;4966879;28;20037;-86
2022/09/03 01:44:15;;;;;;;2.13;1.20;;;;;;;;;;4977827;28;20536;-86
2022/09/03 01:46:45;;;;;;;5.35;1.40;;;;;;;;;;4982550;28;20022;-86
2022/09/03 01:49:21;;;;;;;3.63;1.35;;;;;;;;;;4967703;28;20027;-86
2022/09/03 01:51:50;;;;;;;2.80;2.13;;;;;;;;;;4962940;28;20382;-87
2022/09/03 01:54:16;;;;;;;6.82;1.60;;;;;;;;;;4960516;28;20057;-86
2022/09/03 01:56:45;;;;;;;4.20;1.30;;;;;;;;;;4981898;28;20585;-88
2022/09/03 01:59:30;;;;;;;10.30;1.25;;;;;;;;;;4966071;28;20026;-85
2022/09/03 02:02:05;;;;;;;7.32;1.75;;;;;;;;;;4963201;28;20045;-85
2022/09/03 02:04:31;;;;;;;5.28;1.83;;;;;;;;;;4966894;28;20552;-87
2022/09/03 02:06:59;;;;;;;1.30;1.20;;;;;;;;;;4966574;28;20041;-87
2022/09/03 02:09:25;;;;;;;3.95;1.77;;;;;;;;;;4978211;28;22392;-87
2022/09/03 02:12:09;;;;;;;4.53;1.60;;;;;;;;;;4976797;28;20510;-86
2022/09/03 02:14:36;;;;;;;4.60;1.40;;;;;;;;;;4975773;28;20031;-87
2022/09/03 02:17:02;;;;;;;4.30;1.40;;;;;;;;;;4974707;28;20480;-86
2022/09/03 02:19:29;;;;;;;2.25;1.30;;;;;;;;;;4964148;28;20449;-86
2022/09/03 02:21:56;;;;;;;1.60;1.30;;;;;;;;;;4983927;28;20478;-86
2022/09/03 02:24:23;;;;;;;5.47;1.75;;;;;;;;;;4963821;28;20510;-87
2022/09/03 02:26:49;;;;;;;4.82;1.60;;;;;;;;;;4972952;28;20141;-87
2022/09/03 02:29:16;;;;;;;4.80;1.45;;;;;;;;;;4948988;28;20145;-86
2022/09/03 02:31:42;;;;;;;4.72;1.60;;;;;;;;;;4948602;28;20039;-87
2022/09/03 02:34:08;;;;;;;3.47;1.48;;;;;;;;;;4963166;28;20046;-86
2022/09/03 02:36:36;;;;;;;2.20;1.52;;;;;;;;;;4964602;28;20398;-87
2022/09/03 02:39:03;;;;;;;5.03;1.55;;;;;;;;;;4981972;28;20061;-87
2022/09/03 02:41:30;;;;;;;5.65;1.88;;;;;;;;;;4963397;28;20029;-87
2022/09/03 02:44:05;;;;;;;11.27;1.80;;;;;;;;;;4947687;28;20094;-86
2022/09/03 02:46:51;;;;;;;11.43;1.57;;;;;;;;;;4971623;28;20022;-87
2022/09/03 02:49:17;;;;;;;;;;;;;;;;;;4966416;28;20085;-87
2022/09/03 02:51:43;;;;;;;1.30;1.20;;;;;;;;;;4969843;28;20366;-86
2022/09/03 02:54:10;;;;;;;4.72;1.75;;;;;;;;;;4946556;28;20030;-87
2022/09/03 02:56:36;;;;;;;3.95;1.50;;;;;;;;;;4949997;28;20110;-87
2022/09/03 02:59:06;;;;;;;3.65;1.73;;;;;;;;;;4953495;28;20026;-87
2022/09/03 03:01:32;;;;;;;1.85;1.52;;;;;;;;;;4978180;28;20026;-87
2022/09/03 03:03:58;;;;;;;5.25;2.30;;;;;;;;;;4951377;28;20038;-86
2022/09/03 03:06:24;;;;;;;7.10;1.55;;;;;;;;;;4950669;28;20038;-86
2022/09/03 03:08:51;;;;;;;2.42;1.60;;;;;;;;;;4979857;28;20042;-87
2022/09/03 03:11:18;;;;;;;2.33;1.52;;;;;;;;;;4965524;28;20031;-87
2022/09/03 03:13:45;;;;;;;4.63;1.90;;;;;;;;;;4965827;28;20022;-86
2022/09/03 03:16:12;;;;;;;7.45;1.83;;;;;;;;;;4964805;28;20038;-87
2022/09/03 03:18:38;;;;;;;2.78;1.73;;;;;;;;;;4956311;28;20035;-87
2022/09/03 03:21:14;;;;;;;8.30;1.85;;;;;;;;;;4957355;28;20042;-87
2022/09/03 03:23:40;;;;;;;4.75;1.80;;;;;;;;;;4977348;28;20043;-87
2022/09/03 03:26:08;;;;;;;4.30;1.80;;;;;;;;;;4955942;28;20046;-87
2022/09/03 03:28:34;;;;;;;3.17;1.40;;;;;;;;;;4960343;28;20034;-86
2022/09/03 03:31:11;;;;;;;7.68;1.75;;;;;;;;;;4949717;28;20047;-85
2022/09/03 03:33:37;;;;;;;2.97;1.75;;;;;;;;;;4966531;28;20089;-87
2022/09/03 03:36:14;;;;;;;1.63;1.42;;;;;;;;;;4970290;28;20462;-87
2022/09/03 03:38:41;;;;;;;2.00;1.52;;;;;;;;;;4983730;28;20133;-87
2022/09/03 03:41:11;;;;;;;2.45;1.55;;;;;;;;;;4962057;28;20490;-87
2022/09/03 03:43:37;;;;;;;1.63;1.50;;;;;;;;;;4963223;28;20033;-86
2022/09/03 03:46:10;;;;;;;3.90;1.83;;;;;;;;;;4956744;28;20114;-86
2022/09/03 03:48:37;;;;;;;8.13;1.80;;;;;;;;;;4953494;28;20038;-86
2022/09/03 03:51:05;;;;;;;7.57;1.45;;;;;;;;;;4963348;28;20027;-87
2022/09/03 03:53:31;;;;;;;2.55;1.88;;;;;;;;;;4977727;28;20027;-86
2022/09/03 03:55:58;;;;;;;4.13;1.48;;;;;;;;;;4966727;28;20092;-87
2022/09/03 03:58:25;;;;;;;2.45;1.70;;;;;;;;;;4964625;28;20038;-87
2022/09/03 04:00:52;;;;;;;2.55;1.58;;;;;;;;;;4963006;28;20037;-86
2022/09/03 04:03:18;;;;;;;1.77;1.48;;;;;;;;;;4964486;28;20022;-87
2022/09/03 04:05:54;;;;;;;5.70;1.50;;;;;;;;;;4958830;28;20031;-86
2022/09/03 04:08:19;;;;;;;7.28;1.65;;;;;;;;;;4983731;28;20038;-87
2022/09/03 04:10:46;;;;;;;2.17;1.80;;;;;;;;;;4938413;28;20038;-87
2022/09/03 04:13:12;;;;;;;4.95;1.88;;;;;;;;;;4949143;28;20034;-87
2022/09/03 04:15:38;;;;;;;3.17;1.60;;;;;;;;;;4962341;28;20026;-86
2022/09/03 04:18:04;;;;;;;3.33;1.80;;;;;;;;;;4978626;28;20071;-87
2022/09/03 04:20:30;;;;;;;2.80;1.88;;;;;;;;;;4961738;28;20509;-87
2022/09/03 04:23:00;;;;;;;4.35;1.60;;;;;;;;;;4965325;28;20041;-86
2022/09/03 04:25:26;;;;;;;3.83;2.17;;;;;;;;;;4973300;28;20054;-87
2022/09/03 04:27:52;;;;;;;3.30;1.52;;;;;;;;;;4980212;28;20046;-87
2022/09/03 04:30:18;;;;;;;2.60;1.55;;;;;;;;;;4962968;28;20578;-87
2022/09/03 04:32:54;;;;;;;3.20;2.00;;;;;;;;;;4961207;28;20085;-87
2022/09/03 04:35:21;;;;;;;5.88;1.80;;;;;;;;;;4948724;28;20035;-87
2022/09/03 04:37:47;;;;;;;2.10;1.67;;;;;;;;;;4945564;28;21061;-86
2022/09/03 04:40:13;;;;;;;2.80;1.45;;;;;;;;;;4957832;28;20030;-87
2022/09/03 04:42:39;;;;;;;2.92;1.65;;;;;;;;;;4966209;28;20081;-86
2022/09/03 04:45:06;;;;;;;6.32;1.70;;;;;;;;;;4966271;28;21378;-86
2022/09/03 04:47:32;;;;;;;6.28;1.60;;;;;;;;;;4966813;28;20042;-86
2022/09/03 04:50:00;;;;;;;6.97;1.50;;;;;;;;;;4981430;28;20517;-87
2022/09/03 04:52:30;;;;;;;4.13;1.63;;;;;;;;;;4955139;28;20544;-87
2022/09/03 04:54:56;;;;;;;6.03;2.10;;;;;;;;;;4981552;28;20026;-86
2022/09/03 04:57:22;;;;;;;5.13;1.60;;;;;;;;;;4967563;28;20040;-87
2022/09/03 04:59:48;;;;;;;5.78;2.00;;;;;;;;;;4959440;28;20027;-87
2022/09/03 05:02:14;;;;;;;2.30;1.70;;;;;;;;;;4966016;28;20035;-86
2022/09/03 05:04:40;;;;;;;5.75;1.92;;;;;;;;;;4976944;28;20031;-87
2022/09/03 05:07:06;;;;;;;3.28;1.85;;;;;;;;;;4964392;28;20732;-86
2022/09/03 05:09:32;;;;;;;13.00;2.10;;;;;;;;;;4948815;28;20498;-86
2022/09/03 05:11:58;;;;;;;4.38;1.98;;;;;;;;;;4942369;28;20497;-87
2022/09/03 05:14:24;;;;;;;7.03;2.03;;;;;;;;;;4959281;28;20035;-86
2022/09/03 05:16:50;;;;;;;3.30;1.63;;;;;;;;;;4980672;28;20074;-86
2022/09/03 05:19:17;;;;;;;4.18;1.77;;;;;;;;;;4953694;28;20046;-87
2022/09/03 05:21:43;;;;;;;6.38;1.67;;;;;;;;;;4974633;28;20366;-86
2022/09/03 05:24:10;;;;;;;5.60;1.92;;;;;;;;;;4947036;28;20030;-86
2022/09/03 05:26:37;;;;;;;6.00;2.20;;;;;;;;;;4976537;28;20100;-86
2022/09/03 05:29:07;;;;;;;3.75;1.70;;;;;;;;;;4943394;28;20487;-86
2022/09/03 05:31:34;;;;;;;2.83;1.88;;;;;;;;;;4973197;28;20647;-86
2022/09/03 05:34:01;;;;;;;1.98;1.70;;;;;;;;;;4964480;28;20037;-85
2022/09/03 05:36:28;;;;;;;3.15;1.77;;;;;;;;;;4983399;28;20109;-86
2022/09/03 05:38:55;;;;;;;3.38;1.58;;;;;;;;;;4967433;28;20034;-86
2022/09/03 05:41:21;;;;;;;3.78;1.92;;;;;;;;;;4965997;28;20030;-86
2022/09/03 05:43:52;;;;;;;3.13;1.80;;;;;;;;;;4981658;28;20389;-86
2022/09/03 05:46:18;;;;;;;8.30;2.10;;;;;;;;;;4967763;28;20038;-87
2022/09/03 05:48:44;;;;;;;4.45;2.10;;;;;;;;;;4951143;28;20034;-87
2022/09/03 05:51:13;;;;;;;4.68;1.92;;;;;;;;;;4950040;28;20042;-86
2022/09/03 05:53:40;;;;;;;5.28;2.00;;;;;;;;;;4966101;28;20041;-86
2022/09/03 05:56:09;;;;;;;2.90;1.90;;;;;;;;;;4984870;28;20518;-87
2022/09/03 05:58:55;;;;;;;3.80;1.83;;;;;;;;;;4962809;28;20113;-86
2022/09/03 06:01:32;;;;;;;5.72;1.77;;;;;;;;;;4969740;28;20547;-87
2022/09/03 06:04:03;;;;;;;4.03;1.85;;;;;;;;;;4978278;28;20402;-86
2022/09/03 06:06:30;;;;;;;9.95;2.28;;;;;;;;;;4962553;28;20132;-87
2022/09/03 06:08:57;;;;;;;4.13;1.90;;;;;;;;;;4959874;28;20100;-87
2022/09/03 06:11:26;;;;;;;3.15;1.95;;;;;;;;;;4969260;28;20034;-87
2022/09/03 06:13:52;;;;;;;4.13;2.00;;;;;;;;;;4963119;28;20613;-87
2022/09/03 06:16:19;;;;;;;2.53;1.90;;;;;;;;;;4966022;28;20478;-87
2022/09/03 06:18:44;;;;;;;2.38;1.65;;;;;;;;;;4962435;28;21270;-86
2022/09/03 06:21:11;;;;;;;5.78;1.92;;;;;;;;;;4949255;28;20038;-87
2022/09/03 06:23:37;;;;;;;2.38;1.73;;;;;;;;;;4945788;28;20022;-86
2022/09/03 06:26:06;;;;;;;8.65;2.15;;;;;;;;;;4978798;28;20525;-86
2022/09/03 06:28:36;;;;;;;5.47;1.80;;;;;;;;;;4965334;28;20069;-87
2022/09/03 06:31:03;;;;;;;4.97;2.85;;;;;;;;;;4977205;28;20023;-87
2022/09/03 06:33:30;;;;;;;2.35;2.00;;;;;;;;;;4950245;28;20066;-87
2022/09/03 06:36:04;;;;;;;2.10;1.50;;;;;;;;;;4978538;28;20025;-87
2022/09/03 06:38:31;;;;;;;1.88;1.70;;;;;;;;;;4972475;28;20483;-87
2022/09/03 06:41:00;;;;;;;4.80;1.73;;;;;;;;;;4968069;28;20054;-87
2022/09/03 06:43:27;;;;;;;7.13;1.75;;;;;;;;;;4962339;28;20034;-86
2022/09/03 06:46:00;;;;;;;9.98;2.38;;;;;;;;;;4962970;28;20034;-87
2022/09/03 06:48:27;;;;;;;4.30;1.88;;;;;;;;;;4962236;28;20513;-86
2022/09/03 06:51:00;;;;;;;9.85;1.85;;;;;;;;;;4963683;28;20478;-87
2022/09/03 06:53:27;;;;;;;2.80;1.52;;;;;;;;;;4966995;28;20121;-87
2022/09/03 06:55:58;;;;;;;2.13;1.58;;;;;;;;;;4976094;28;20026;-87
2022/09/03 06:58:25;;;;;;;4.13;2.00;;;;;;;;;;4954836;28;20684;-86
2022/09/03 07:00:52;;;;;;;3.58;1.67;;;;;;;;;;4974052;28;20600;-87
2022/09/03 07:03:18;;;;;;;2.42;1.90;;;;;;;;;;4969945;28;20513;-87
2022/09/03 07:05:45;;;;;;;3.58;1.67;;;;;;;;;;4957798;28;20803;-87
2022/09/03 07:08:11;;;;;;;3.22;1.85;;;;;;;;;;4961948;28;20121;-88
2022/09/03 07:10:37;;;;;;;2.20;1.80;;;;;;;;;;4978795;28;20413;-88
2022/09/03 07:13:05;;;;;;;6.22;1.98;;;;;;;;;;4976321;28;20034;-87
2022/09/03 07:15:31;;;;;;;2.38;1.60;;;;;;;;;;4960630;28;20529;-87
2022/09/03 07:17:58;;;;;;;3.10;2.22;;;;;;;;;;4952556;28;20041;-88
2022/09/03 07:20:24;;;;;;;8.73;1.73;;;;;;;;;;4961939;28;20030;-87
2022/09/03 07:22:50;;;;;;;2.05;1.85;;;;;;;;;;4940200;28;20504;-88
2022/09/03 07:25:16;;;;;;;6.28;2.25;;;;;;;;;;4971557;28;20188;-88
2022/09/03 07:27:42;;;;;;;4.90;2.03;;;;;;;;;;4947681;28;20039;-87
2022/09/03 07:30:09;;;;;;;2.47;1.70;;;;;;;;;;4945237;28;20039;-87
2022/09/03 07:32:39;;;;;;;5.60;1.80;;;;;;;;;;4943629;28;20042;-88
2022/09/03 07:35:06;;;;;;;5.53;1.63;;;;;;;;;;4949286;28;20402;-87
2022/09/03 07:37:32;;;;;;;11.07;1.65;;;;;;;;;;4964603;28;20500;-87
2022/09/03 07:39:58;;;;;;;2.80;1.80;;;;;;;;;;4948296;28;20313;-87
2022/09/03 07:42:29;;;;;;;4.30;1.85;;;;;;;;;;4948539;28;20132;-87
2022/09/03 07:44:57;;;;;;;4.28;1.73;;;;;;;;;;4962427;28;20275;-87
2022/09/03 07:47:24;;;;;;;2.70;1.65;;;;;;;;;;4944783;28;20305;-87
2022/09/03 07:49:50;;;;;;;2.60;1.50;;;;;;;;;;4960991;28;20073;-87
2022/09/03 07:52:17;;;;;;;2.05;1.50;;;;;;;;;;4943772;28;21226;-87
2022/09/03 07:54:43;;;;;;;2.58;1.60;;;;;;;;;;4948724;28;20125;-87
2022/09/03 07:57:09;;;;;;;3.63;1.73;;;;;;;;;;4944828;28;20039;-86
2022/09/03 07:59:35;;;;;;;1.90;1.50;;;;;;;;;;4941011;28;20096;-87
2022/09/03 08:02:04;;;;;;;2.70;1.60;;;;;;;;;;4961669;28;20038;-88
2022/09/03 08:04:32;;;;;;;2.50;1.40;;;;;;;;;;4961528;28;20049;-89
2022/09/03 08:06:58;;;;;;;1.50;1.40;;;;;;;;;;4942267;28;20035;-87
2022/09/03 08:09:24;;;;;;;3.65;1.70;;;;;;;;;;4952100;28;20042;-88
2022/09/03 08:11:51;;;;;;;3.40;1.75;;;;;;;;;;4944125;28;20049;-88
2022/09/03 08:14:17;;;;;;;2.05;1.63;;;;;;;;;;4979667;28;20033;-88
2022/09/03 08:16:46;;;;;;;6.72;1.67;;;;;;;;;;4960192;28;21085;-88
2022/09/03 08:19:13;;;;;;;4.68;1.60;;;;;;;;;;4974491;28;20324;-86
2022/09/03 08:21:42;;;;;;;2.50;1.65;;;;;;;;;;4944378;28;20046;-87
2022/09/03 08:24:09;;;;;;;4.38;1.85;;;;;;;;;;4959869;28;20027;-88
2022/09/03 08:26:37;;;;;;;3.17;1.73;;;;;;;;;;4949294;28;20059;-88
2022/09/03 08:29:04;;;;;;;1.65;1.40;;;;;;;;;;4954770;28;20251;-90
2022/09/03 08:31:37;;;;;;;4.65;1.42;;;;;;;;;;4961162;28;20030;-87
2022/09/03 08:34:05;;;;;;;6.70;1.75;;;;;;;;;;4961018;28;21239;-88
2022/09/03 08:36:32;;;;;;;7.88;1.70;;;;;;;;;;4975556;28;20034;-90
2022/09/03 08:39:02;;;;;;;2.58;1.55;;;;;;;;;;4937987;28;20701;-88
2022/09/03 08:41:47;;;;;;;2.55;1.50;;;;;;;;;;4955569;28;20026;-88
2022/09/03 08:44:22;;;;;;;3.80;1.30;;;;;;;;;;4954105;28;20383;-88
2022/09/03 08:47:05;;;;;;;3.90;1.60;;;;;;;;;;4969672;28;20538;-89
2022/09/03 08:49:41;;;;;;;2.55;1.70;;;;;;;;;;4958607;28;20043;-88
2022/09/03 08:52:10;;;;;;;6.50;1.70;;;;;;;;;;4955284;28;20034;-88
2022/09/03 08:54:37;;;;;;;7.47;1.50;;;;;;;;;;4952989;28;20038;-88
2022/09/03 08:57:03;;;;;;;7.05;1.45;;;;;;;;;;4960587;28;20502;-88
2022/09/03 08:59:31;;;;;;;1.88;1.65;;;;;;;;;;4951228;28;20112;-88
2022/09/03 09:02:05;;;;;;;6.40;2.10;;;;;;;;;;4971264;28;20030;-89
2022/09/03 09:04:40;;;;;;;5.45;2.67;;;;;;;;;;4971534;28;20030;-89
2022/09/03 09:07:31;;;;;;;3.70;1.85;;;;;;;;;;4976548;28;20045;-89
2022/09/03 09:10:06;;;;;;;2.42;1.65;;;;;;;;;;4953591;28;20054;-89
2022/09/03 09:12:32;;;;;;;;;;;;;;;;;;4955499;28;20436;-89
2022/09/03 09:15:01;;;;;;;2.95;1.52;;;;;;;;;;4963388;28;19916;-88
2022/09/03 09:17:30;;;;;;;7.57;2.00;;;;;;;;;;4946555;28;20037;-87
2022/09/03 09:19:56;;;;;;;2.33;1.70;;;;;;;;;;4975867;28;20489;-88
2022/09/03 09:22:34;;;;;;;6.43;1.60;;;;;;;;;;4975562;28;20026;-88
2022/09/03 09:25:04;;;;;;;2.22;1.60;;;;;;;;;;4976759;28;20049;-87
2022/09/03 09:27:31;;;;;;;2.10;1.80;;;;;;;;;;4962446;28;20481;-88
2022/09/03 09:30:00;;;;;;;3.58;2.53;;;;;;;;;;4955657;28;20031;-87
2022/09/03 09:32:26;;;;;;;4.00;2.00;;;;;;;;;;4976432;28;20115;-88
2022/09/03 09:34:53;;;;;;;14.55;1.77;;;;;;;;;;4959472;28;20159;-89
2022/09/03 09:37:20;;;;;;;9.35;1.70;;;;;;;;;;4948933;28;20062;-87
2022/09/03 09:39:59;;;;;;;3.13;1.83;;;;;;;;;;4962847;28;20509;-87
2022/09/03 09:42:28;;;;;;;4.57;3.78;;;;;;;;;;4965949;28;20042;-87
2022/09/03 09:44:54;;;;;;;5.38;2.00;;;;;;;;;;4956315;28;20051;-87
2022/09/03 09:47:30;;;;;;;4.75;2.67;;;;;;;;;;4971355;28;20023;-87
2022/09/03 09:49:57;;;;;;;1.95;1.60;;;;;;;;;;4980270;28;20360;-87
2022/09/03 09:52:28;;;;;;;3.03;2.33;;;;;;;;;;4980488;28;20110;-87
2022/09/03 09:55:06;;;;;;;6.68;1.90;;;;;;;;;;4976087;28;20058;-87
2022/09/03 09:57:33;;;;;;;4.65;1.80;;;;;;;;;;4964846;28;20027;-87
2022/09/03 10:00:12;;;;;;;15.93;14.88;;;;;;;;;;4965386;28;20434;-87
2022/09/03 10:02:41;;;;;;;3.63;2.55;;;;;;;;;;4964463;28;20026;-87
2022/09/03 10:05:15;;;;;;;6.75;1.73;;;;;;;;;;4965211;28;20081;-87
2022/09/03 10:07:41;;;;;;;3.80;1.77;;;;;;;;;;4964353;28;20034;-88
2022/09/03 10:10:19;;;;;;;4.95;2.17;;;;;;;;;;4966507;28;20038;-87
2022/09/03 10:12:48;;;;;;;5.20;2.05;;;;;;;;;;4977625;28;20023;-88
2022/09/03 10:15:16;;;;;;;3.22;1.80;;;;;;;;;;4982685;28;20640;-88
2022/09/03 10:18:06;;;;;;;1.95;1.60;;;;;;;;;;4982698;28;20198;-88
2022/09/03 10:20:54;;;;;;;1.60;1.50;;;;;;;;;;4959059;28;20100;-88
2022/09/03 10:23:27;;;;;;;7.05;2.08;;;;;;;;;;4967291;28;20520;-87
2022/09/03 10:25:56;;;;;;;2.85;1.55;;;;;;;;;;4944089;28;20062;-88
2022/09/03 10:28:25;;;;;;;3.33;1.55;;;;;;;;;;4967228;28;20038;-87
2022/09/03 10:30:52;;;;;;;2.13;1.75;;;;;;;;;;4963826;28;20030;-87
2022/09/03 10:33:22;;;;;;;2.58;1.60;;;;;;;;;;4983145;28;20027;-88
2022/09/03 10:36:03;;;;;;;6.53;2.30;;;;;;;;;;4965853;28;20160;-88
2022/09/03 10:38:33;;;;;;;1.90;1.65;;;;;;;;;;4979913;28;20487;-88
2022/09/03 10:41:08;;;;;;;2.80;1.67;;;;;;;;;;4981820;28;20549;-88
2022/09/03 10:43:40;;;;;;;6.78;1.70;;;;;;;;;;4965210;28;20483;-88
2022/09/03 10:46:18;;;;;;;2.20;1.60;;;;;;;;;;4972444;28;20037;-88
2022/09/03 10:48:44;;;;;;;1.95;1.58;;;;;;;;;;4962717;28;20029;-88
2022/09/03 10:51:19;;;;;;;2.70;1.38;;;;;;;;;;4983142;28;20034;-88
2022/09/03 10:54:02;;;;;;;10.30;2.22;;;;;;;;;;4963349;28;20109;-88
2022/09/03 10:56:32;;;;;;;4.93;1.77;;;;;;;;;;4969247;28;20081;-88
2022/09/03 10:58:58;;;;;;;4.70;1.60;;;;;;;;;;4980750;28;20198;-88
2022/09/03 11:01:50;;;;;;;4.03;1.33;;;;;;;;;;4961671;28;20054;-88
2022/09/03 11:04:35;;;;;;;8.90;1.70;;;;;;;;;;4981649;28;20165;-88
2022/09/03 11:07:07;;;;;;;8.45;1.50;;;;;;;;;;4963077;28;20034;-88
2022/09/03 11:09:39;;;;;;;1.88;1.50;;;;;;;;;;4970467;28;20036;-88
2022/09/03 11:12:06;;;;;;;4.32;1.52;;;;;;;;;;4961004;28;20046;-87
2022/09/03 11:14:35;;;;;;;1.48;1.38;;;;;;;;;;4954308;28;20058;-88
2022/09/03 11:17:11;;;;;;;2.38;1.52;;;;;;;;;;4966910;28;20109;-88
2022/09/03 11:19:44;;;;;;;7.10;1.85;;;;;;;;;;4960572;28;20026;-88
2022/09/03 11:22:12;;;;;;;3.78;1.88;;;;;;;;;;4970762;28;20026;-88
2022/09/03 11:24:39;;;;;;;10.32;1.90;;;;;;;;;;4942010;28;20054;-88
2022/09/03 11:27:27;;;;;;;14.65;1.80;;;;;;;;;;4965608;28;20380;-88
2022/09/03 11:29:57;;;;;;;5.38;1.85;;;;;;;;;;4980128;28;20033;-88
2022/09/03 11:32:48;;;;;;;9.20;1.60;;;;;;;;;;4962231;28;20042;-87
2022/09/03 11:35:26;;;;;;;1.75;1.60;;;;;;;;;;4923380;28;20495;-88
2022/09/03 11:38:01;;;;;;;2.72;1.80;;;;;;;;;;4964350;28;20031;-88
2022/09/03 11:40:37;;;;;;;15.65;1.63;;;;;;;;;;4962531;28;20884;-88
2022/09/03 11:43:08;;;;;;;4.82;1.48;;;;;;;;;;4963979;28;20031;-87
2022/09/03 11:45:36;;;;;;;3.15;1.33;;;;;;;;;;4964923;28;20414;-88
2022/09/03 11:48:16;;;;;;;3.75;1.80;;;;;;;;;;4964515;28;20541;-88
2022/09/03 11:50:51;;;;;;;5.85;1.52;;;;;;;;;;4959122;28;20022;-88
2022/09/03 11:53:20;;;;;;;5.95;1.60;;;;;;;;;;4973876;28;20122;-88
2022/09/03 11:55:49;;;;;;;1.33;1.20;;;;;;;;;;4975592;28;20487;-88
2022/09/03 11:58:32;;;;;;;1.40;1.20;;;;;;;;;;4960259;28;20553;-88
2022/09/03 12:01:00;;;;;;;5.35;1.25;;;;;;;;;;4961529;28;20029;-88
2022/09/03 12:03:28;;;;;;;3.92;1.70;;;;;;;;;;4956745;28;20223;-88
2022/09/03 12:06:12;;;;;;;4.15;1.70;;;;;;;;;;4962661;28;20026;-87
2022/09/03 12:08:42;;;;;;;3.35;1.45;;;;;;;;;;4961768;28;20034;-87
2022/09/03 12:11:29;;;;;;;4.63;1.20;;;;;;;;;;4965576;28;20026;-88
2022/09/03 12:14:10;;;;;;;2.00;1.20;;;;;;;;;;4962008;28;20515;-89
2022/09/03 12:16:36;;;;;;;3.13;1.33;;;;;;;;;;4971424;28;20475;-88
2022/09/03 12:19:07;;;;;;;5.15;1.05;;;;;;;;;;4961488;28;20038;-88
2022/09/03 12:21:39;;;;;;;9.02;1.55;;;;;;;;;;4977730;28;20426;-88
2022/09/03 12:24:06;;;;;;;5.47;1.30;;;;;;;;;;4966310;28;20123;-88
2022/09/03 12:26:38;;;;;;;5.22;1.13;;;;;;;;;;4965757;28;20050;-89
2022/09/03 12:29:05;;;;;;;6.10;1.35;;;;;;;;;;4979780;28;20041;-89
2022/09/03 12:31:34;;;;;;;1.52;1.13;;;;;;;;;;4961112;28;20039;-88
2022/09/03 12:34:01;;;;;;;3.80;1.30;;;;;;;;;;4980138;28;20041;-87
2022/09/03 12:36:38;;;;;;;1.30;1.20;;;;;;;;;;4964039;28;20034;-88
2022/09/03 12:39:09;;;;;;;12.57;1.50;;;;;;;;;;4966354;28;20034;-88
2022/09/03 12:41:36;;;;;;;4.13;1.42;;;;;;;;;;4979380;28;20034;-89
2022/09/03 12:44:03;;;;;;;2.40;1.20;;;;;;;;;;4960771;28;20034;-89
2022/09/03 12:46:30;;;;;;;4.38;1.10;;;;;;;;;;4973482;28;20445;-88
2022/09/03 12:49:02;;;;;;;3.45;1.30;;;;;;;;;;4976281;28;20026;-88
2022/09/03 12:51:31;;;;;;;2.92;1.25;;;;;;;;;;4964827;28;20042;-89
2022/09/03 12:53:57;;;;;;;3.78;1.30;;;;;;;;;;4965214;28;20636;-88
2022/09/03 12:56:23;;;;;;;3.45;1.15;;;;;;;;;;4965766;28;20172;-89
2022/09/03 12:58:49;;;;;;;3.20;1.38;;;;;;;;;;4964164;28;20030;-90
2022/09/03 13:01:21;;;;;;;3.28;1.02;;;;;;;;;;4964519;28;20047;-89
2022/09/03 13:03:53;;;;;;;6.40;1.30;;;;;;;;;;4968951;28;20517;-90
2022/09/03 13:06:28;;;;;;;4.43;1.40;;;;;;;;;;4965531;28;20030;-89
2022/09/03 13:09:00;;;;;;;2.45;0.93;;;;;;;;;;4981341;28;20050;-89
2022/09/03 13:11:27;;;;;;;3.72;1.20;;;;;;;;;;4981295;28;20030;-91
2022/09/03 13:14:12;;;;;;;1.00;0.90;;;;;;;;;;4950502;28;20506;-89
2022/09/03 13:16:38;;;;;;;1.52;1.35;;;;;;;;;;4979845;28;20034;-89
2022/09/03 13:19:23;;;;;;;3.25;1.20;;;;;;;;;;4965228;28;20027;-89
2022/09/03 13:21:49;;;;;;;4.30;1.42;;;;;;;;;;4954745;28;20026;-88
2022/09/03 13:24:38;;;;;;;1.73;1.15;;;;;;;;;;4954530;28;20041;-87
2022/09/03 13:27:29;;;;;;;7.15;1.40;;;;;;;;;;4925412;28;20043;-88
2022/09/03 13:30:03;;;;;;;2.72;1.35;;;;;;;;;;4944880;28;20039;-89
2022/09/03 13:32:39;;;;;;;1.45;1.00;;;;;;;;;;4943513;28;20042;-89
2022/09/03 13:35:17;;;;;;;2.58;1.33;;;;;;;;;;4947296;28;20589;-89
2022/09/03 13:37:45;;;;;;;2.42;1.17;;;;;;;;;;4959943;28;20030;-88
2022/09/03 13:40:30;;;;;;;3.47;1.30;;;;;;;;;;4942020;28;20070;-88
2022/09/03 13:43:01;;;;;;;1.48;1.05;;;;;;;;;;4957468;28;20886;-89
2022/09/03 13:46:03;;;;;;;3.88;1.10;;;;;;;;;;4958919;28;20365;-89
2022/09/03 13:51:29;;;;;;;2.28;1.13;;;;;;;;;;4956767;28;20059;-89
2022/09/03 13:54:12;;;;;;;3.55;1.17;;;;;;;;;;4954940;28;20253;-89
2022/09/03 13:56:41;;;;;;;1.45;1.13;;;;;;;;;;4941920;28;20031;-88
2022/09/03 13:59:17;;;;;;;3.38;1.10;;;;;;;;;;4935945;28;20037;-90
2022/09/03 14:01:43;;;;;;;8.45;0.90;;;;;;;;;;4960012;28;20030;-89
2022/09/03 14:04:22;;;;;;;1.95;1.15;;;;;;;;;;4943621;28;20090;-90
2022/09/03 14:06:58;;;;;;;2.58;1.75;;;;;;;;;;4946843;28;20041;-90
2022/09/03 14:09:43;;;;;;;2.15;1.20;;;;;;;;;;4962287;28;20062;-90
2022/09/03 14:12:31;;;;;;;4.53;1.37;;;;;;;;;;4943495;28;20023;-90
2022/09/03 14:15:04;;;;;;;7.95;1.00;;;;;;;;;;4945722;28;20045;-90
2022/09/03 14:17:48;;;;;;;1.42;0.85;;;;;;;;;;4944198;28;20034;-91
2022/09/03 14:20:25;;;;;;;1.52;1.02;;;;;;;;;;4937315;28;20053;-90
2022/09/03 14:22:51;;;;;;;5.55;1.23;;;;;;;;;;4945722;28;20483;-90
2022/09/03 14:25:19;;;;;;;1.08;0.98;;;;;;;;;;4940014;28;20093;-89
2022/09/03 14:27:48;;;;;;;2.45;0.95;;;;;;;;;;4961313;28;20059;-90
2022/09/03 14:30:18;;;;;;;6.00;1.50;;;;;;;;;;4960284;28;20689;-89
2022/09/03 14:32:57;;;;;;;1.13;1.02;;;;;;;;;;4957008;28;20126;-90
2022/09/03 14:35:42;;;;;;;1.40;1.17;;;;;;;;;;4961239;28;20545;-90
2022/09/03 14:38:11;;;;;;;6.03;1.67;;;;;;;;;;4954286;28;20089;-89
2022/09/03 14:40:42;;;;;;;3.08;1.25;;;;;;;;;;4973831;28;20057;-90
2022/09/03 14:43:14;;;;;;;2.78;1.13;;;;;;;;;;4959850;28;20037;-90
2022/09/03 14:45:44;;;;;;;4.88;0.88;;;;;;;;;;4964870;28;20048;-89
2022/09/03 14:48:34;;;;;;;6.90;2.33;;;;;;;;;;4977396;28;20034;-93
2022/09/03 14:51:09;;;;;;;3.58;1.20;;;;;;;;;;4955541;28;20117;-90
2022/09/03 14:53:50;;;;;;;4.40;1.60;;;;;;;;;;4971555;28;20560;-89
2022/09/03 14:56:21;;;;;;;3.78;1.10;;;;;;;;;;4961760;28;20061;-89
2022/09/03 14:58:55;;;;;;;6.55;1.27;;;;;;;;;;4974117;28;20081;-88
2022/09/03 15:01:32;;;;;;;4.85;1.10;;;;;;;;;;4977765;28;20094;-89
2022/09/03 15:04:04;;;;;;;6.20;1.10;;;;;;;;;;4968150;28;20139;-89
2022/09/03 15:06:44;;;;;;;2.53;1.20;;;;;;;;;;4964002;28;20501;-89
2022/09/03 15:09:27;;;;;;;4.38;0.90;;;;;;;;;;4982349;28;20721;-89
2022/09/03 15:11:59;;;;;;;1.40;1.10;;;;;;;;;;4977774;28;20035;-89